sensor_id;sensor_type;location;lat;lon;timestamp;temperature;humidity
19966;DHT22;10144;50.874;4.762;2023-04-07T00:01:30;9.60;99.90
19966;DHT22;10144;50.874;4.762;2023-04-07T00:04:01;9.50;99.90
19966;DHT22;10144;50.874;4.762;2023-04-07T00:06:28;9.50;99.90
19966;DHT22;10144;50.874;4.762;2023-04-07T00:09:06;9.50;99.90
19966;DHT22;10144;50.874;4.762;2023-04-07T00:14:54;9.60;99.90
19966;DHT22;10144;50.874;4.762;2023-04-07T00:17:22;9.50;99.90
19966;DHT22;10144;50.874;4.762;2023-04-07T00:19:51;9.40;99.90
19966;DHT22;10144;50.874;4.762;2023-04-07T00:22:24;9.40;99.90
19966;DHT22;10144;50.874;4.762;2023-04-07T00:24:55;9.40;99.90
19966;DHT22;10144;50.874;4.762;2023-04-07T00:27:22;9.50;99.90
19966;DHT22;10144;50.874;4.762;2023-04-07T00:29:47;9.40;99.90
19966;DHT22;10144;50.874;4.762;2023-04-07T00:32:13;9.40;99.90
19966;DHT22;10144;50.874;4.762;2023-04-07T00:34:41;9.40;99.90
19966;DHT22;10144;50.874;4.762;2023-04-07T00:37:20;9.50;99.90
19966;DHT22;10144;50.874;4.762;2023-04-07T00:39:49;9.40;99.90
19966;DHT22;10144;50.874;4.762;2023-04-07T00:42:15;9.40;99.90
19966;DHT22;10144;50.874;4.762;2023-04-07T00:44:41;9.40;99.90
19966;DHT22;10144;50.874;4.762;2023-04-07T00:47:09;9.30;99.90
19966;DHT22;10144;50.874;4.762;2023-04-07T00:49:38;9.30;99.90
19966;DHT22;10144;50.874;4.762;2023-04-07T00:52:04;9.30;99.90
19966;DHT22;10144;50.874;4.762;2023-04-07T00:54:31;9.30;99.90
19966;DHT22;10144;50.874;4.762;2023-04-07T01:03:44;9.00;99.90
19966;DHT22;10144;50.874;4.762;2023-04-07T01:09:38;8.90;99.90
19966;DHT22;10144;50.874;4.762;2023-04-07T01:15:29;8.80;99.90
19966;DHT22;10144;50.874;4.762;2023-04-07T01:21:18;8.80;99.90
19966;DHT22;10144;50.874;4.762;2023-04-07T01:33:50;8.90;99.90
19966;DHT22;10144;50.874;4.762;2023-04-07T01:39:39;9.10;99.90
19966;DHT22;10144;50.874;4.762;2023-04-07T01:45:28;8.90;99.90
19966;DHT22;10144;50.874;4.762;2023-04-07T01:51:16;8.90;99.90
19966;DHT22;10144;50.874;4.762;2023-04-07T01:57:05;8.80;99.90
19966;DHT22;10144;50.874;4.762;2023-04-07T02:02:59;8.70;99.90
19966;DHT22;10144;50.874;4.762;2023-04-07T02:08:56;8.70;99.90
19966;DHT22;10144;50.874;4.762;2023-04-07T02:14:45;8.50;99.90
19966;DHT22;10144;50.874;4.762;2023-04-07T02:20:34;8.10;99.90
19966;DHT22;10144;50.874;4.762;2023-04-07T02:26:23;8.00;99.90
19966;DHT22;10144;50.874;4.762;2023-04-07T02:32:11;8.00;99.90
19966;DHT22;10144;50.874;4.762;2023-04-07T02:37:58;7.80;99.90
19966;DHT22;10144;50.874;4.762;2023-04-07T02:43:46;7.80;99.90
19966;DHT22;10144;50.874;4.762;2023-04-07T02:49:34;7.60;99.90
19966;DHT22;10144;50.874;4.762;2023-04-07T02:55:22;7.60;99.90
19966;DHT22;10144;50.874;4.762;2023-04-07T03:01:10;7.40;99.90
19966;DHT22;10144;50.874;4.762;2023-04-07T03:06:58;7.20;99.90
19966;DHT22;10144;50.874;4.762;2023-04-07T03:12:45;7.20;99.90
19966;DHT22;10144;50.874;4.762;2023-04-07T03:18:33;7.00;99.90
19966;DHT22;10144;50.874;4.762;2023-04-07T03:24:21;7.10;99.90
19966;DHT22;10144;50.874;4.762;2023-04-07T03:30:09;7.20;99.90
19966;DHT22;10144;50.874;4.762;2023-04-07T03:35:58;7.10;99.90
19966;DHT22;10144;50.874;4.762;2023-04-07T03:41:46;7.00;99.90
19966;DHT22;10144;50.874;4.762;2023-04-07T03:47:34;7.00;99.90
19966;DHT22;10144;50.874;4.762;2023-04-07T03:53:22;7.10;99.90
19966;DHT22;10144;50.874;4.762;2023-04-07T03:59:10;7.20;99.90
19966;DHT22;10144;50.874;4.762;2023-04-07T04:04:58;7.30;99.90
19966;DHT22;10144;50.874;4.762;2023-04-07T04:10:46;7.20;99.90
19966;DHT22;10144;50.874;4.762;2023-04-07T04:16:34;7.30;99.90
19966;DHT22;10144;50.874;4.762;2023-04-07T04:22:22;7.40;99.90
19966;DHT22;10144;50.874;4.762;2023-04-07T04:28:10;7.40;99.90
19966;DHT22;10144;50.874;4.762;2023-04-07T04:33:58;7.40;99.90
19966;DHT22;10144;50.874;4.762;2023-04-07T04:39:47;7.40;99.90
19966;DHT22;10144;50.874;4.762;2023-04-07T04:45:38;7.40;99.90
19966;DHT22;10144;50.874;4.762;2023-04-07T04:51:27;7.30;99.90
19966;DHT22;10144;50.874;4.762;2023-04-07T05:03:21;7.50;99.90
19966;DHT22;10144;50.874;4.762;2023-04-07T05:09:09;7.30;99.90
19966;DHT22;10144;50.874;4.762;2023-04-07T05:14:57;7.20;99.90
19966;DHT22;10144;50.874;4.762;2023-04-07T05:20:44;7.20;99.90
19966;DHT22;10144;50.874;4.762;2023-04-07T05:26:32;7.40;99.90
19966;DHT22;10144;50.874;4.762;2023-04-07T05:32:20;7.10;99.90
19966;DHT22;10144;50.874;4.762;2023-04-07T05:38:07;6.90;99.90
19966;DHT22;10144;50.874;4.762;2023-04-07T05:43:57;6.90;99.90
19966;DHT22;10144;50.874;4.762;2023-04-07T05:49:44;7.10;99.90
19966;DHT22;10144;50.874;4.762;2023-04-07T05:55:33;7.30;99.90
19966;DHT22;10144;50.874;4.762;2023-04-07T06:01:21;7.50;99.90
19966;DHT22;10144;50.874;4.762;2023-04-07T06:07:08;8.00;99.90
19966;DHT22;10144;50.874;4.762;2023-04-07T06:12:56;8.50;99.90
19966;DHT22;10144;50.874;4.762;2023-04-07T06:18:44;9.00;99.90
19966;DHT22;10144;50.874;4.762;2023-04-07T06:24:31;9.20;99.90
19966;DHT22;10144;50.874;4.762;2023-04-07T06:30:19;9.40;99.90
19966;DHT22;10144;50.874;4.762;2023-04-07T06:36:13;9.00;99.90
19966;DHT22;10144;50.874;4.762;2023-04-07T06:42:10;9.00;99.90
19966;DHT22;10144;50.874;4.762;2023-04-07T06:47:57;8.70;99.90
19966;DHT22;10144;50.874;4.762;2023-04-07T06:53:58;9.20;99.90
19966;DHT22;10144;50.874;4.762;2023-04-07T07:10:10;11.20;99.90
19966;DHT22;10144;50.874;4.762;2023-04-07T07:18:34;10.90;99.90
19966;DHT22;10144;50.874;4.762;2023-04-07T07:27:46;11.60;99.90
19966;DHT22;10144;50.874;4.762;2023-04-07T07:30:40;11.10;99.90
19966;DHT22;10144;50.874;4.762;2023-04-07T07:39:13;10.80;99.90
19966;DHT22;10144;50.874;4.762;2023-04-07T07:41:40;10.70;99.90
19966;DHT22;10144;50.874;4.762;2023-04-07T07:47:28;11.20;99.90
19966;DHT22;10144;50.874;4.762;2023-04-07T07:53:17;11.10;99.90
19966;DHT22;10144;50.874;4.762;2023-04-07T07:59:05;11.50;99.90
19966;DHT22;10144;50.874;4.762;2023-04-07T08:10:06;11.80;99.90
19966;DHT22;10144;50.874;4.762;2023-04-07T08:12:36;11.70;99.90
19966;DHT22;10144;50.874;4.762;2023-04-07T08:18:30;10.70;99.90
19966;DHT22;10144;50.874;4.762;2023-04-07T08:26:57;11.10;99.90
19966;DHT22;10144;50.874;4.762;2023-04-07T08:32:45;11.60;99.90
19966;DHT22;10144;50.874;4.762;2023-04-07T08:35:25;11.70;99.90
19966;DHT22;10144;50.874;4.762;2023-04-07T08:41:17;11.30;99.90
19966;DHT22;10144;50.874;4.762;2023-04-07T08:47:08;11.30;99.90
19966;DHT22;10144;50.874;4.762;2023-04-07T08:53:00;11.70;99.90
19966;DHT22;10144;50.874;4.762;2023-04-07T08:58:53;12.10;99.90
19966;DHT22;10144;50.874;4.762;2023-04-07T09:04:43;11.50;99.90
19966;DHT22;10144;50.874;4.762;2023-04-07T09:10:32;10.70;99.90
19966;DHT22;10144;50.874;4.762;2023-04-07T09:16:20;10.70;99.90
19966;DHT22;10144;50.874;4.762;2023-04-07T09:22:09;10.90;99.90
19966;DHT22;10144;50.874;4.762;2023-04-07T09:28:04;11.50;99.90
19966;DHT22;10144;50.874;4.762;2023-04-07T09:33:52;11.20;99.90
19966;DHT22;10144;50.874;4.762;2023-04-07T09:39:51;11.00;99.90
19966;DHT22;10144;50.874;4.762;2023-04-07T09:45:41;11.00;99.90
19966;DHT22;10144;50.874;4.762;2023-04-07T09:51:28;10.90;99.90
19966;DHT22;10144;50.874;4.762;2023-04-07T09:57:17;11.40;99.90
19966;DHT22;10144;50.874;4.762;2023-04-07T10:03:06;12.50;99.90
19966;DHT22;10144;50.874;4.762;2023-04-07T10:08:57;13.70;99.90
19966;DHT22;10144;50.874;4.762;2023-04-07T10:14:53;14.30;99.90
19966;DHT22;10144;50.874;4.762;2023-04-07T10:20:44;15.50;99.90
19966;DHT22;10144;50.874;4.762;2023-04-07T10:26:43;16.50;99.90
19966;DHT22;10144;50.874;4.762;2023-04-07T10:29:12;16.60;99.90
19966;DHT22;10144;50.874;4.762;2023-04-07T10:35:03;14.30;99.90
19966;DHT22;10144;50.874;4.762;2023-04-07T10:40:55;12.30;99.90
19966;DHT22;10144;50.874;4.762;2023-04-07T10:52:40;11.90;99.90
19966;DHT22;10144;50.874;4.762;2023-04-07T10:58:31;11.90;99.90
19966;DHT22;10144;50.874;4.762;2023-04-07T11:07:43;11.90;99.90
19966;DHT22;10144;50.874;4.762;2023-04-07T11:13:48;11.40;99.90
19966;DHT22;10144;50.874;4.762;2023-04-07T11:19:50;10.70;99.90
19966;DHT22;10144;50.874;4.762;2023-04-07T11:25:41;10.60;99.90
19966;DHT22;10144;50.874;4.762;2023-04-07T11:31:30;11.00;99.90
19966;DHT22;10144;50.874;4.762;2023-04-07T11:37:25;11.30;99.90
19966;DHT22;10144;50.874;4.762;2023-04-07T11:49:09;12.30;99.90
19966;DHT22;10144;50.874;4.762;2023-04-07T11:54:57;12.30;99.90
19966;DHT22;10144;50.874;4.762;2023-04-07T12:07:30;11.90;99.90
19966;DHT22;10144;50.874;4.762;2023-04-07T12:13:18;11.80;99.90
19966;DHT22;10144;50.874;4.762;2023-04-07T12:19:06;11.80;99.90
19966;DHT22;10144;50.874;4.762;2023-04-07T12:24:53;12.00;99.90
19966;DHT22;10144;50.874;4.762;2023-04-07T12:30:41;11.70;99.90
19966;DHT22;10144;50.874;4.762;2023-04-07T12:36:30;10.90;99.90
19966;DHT22;10144;50.874;4.762;2023-04-07T12:42:18;10.60;99.90
19966;DHT22;10144;50.874;4.762;2023-04-07T12:48:05;10.40;99.90
19966;DHT22;10144;50.874;4.762;2023-04-07T12:53:53;10.60;99.90
19966;DHT22;10144;50.874;4.762;2023-04-07T12:59:41;10.60;99.90
19966;DHT22;10144;50.874;4.762;2023-04-07T13:05:29;11.00;99.90
19966;DHT22;10144;50.874;4.762;2023-04-07T13:11:17;11.40;99.90
19966;DHT22;10144;50.874;4.762;2023-04-07T13:17:06;11.40;99.90
19966;DHT22;10144;50.874;4.762;2023-04-07T13:22:53;11.50;99.90
19966;DHT22;10144;50.874;4.762;2023-04-07T13:28:41;12.10;99.90
19966;DHT22;10144;50.874;4.762;2023-04-07T13:34:33;12.90;99.90
19966;DHT22;10144;50.874;4.762;2023-04-07T13:40:21;13.60;99.90
19966;DHT22;10144;50.874;4.762;2023-04-07T13:52:09;13.40;99.90
19966;DHT22;10144;50.874;4.762;2023-04-07T13:57:59;12.10;99.90
19966;DHT22;10144;50.874;4.762;2023-04-07T14:03:50;11.40;99.90
19966;DHT22;10144;50.874;4.762;2023-04-07T14:09:38;11.10;99.90
19966;DHT22;10144;50.874;4.762;2023-04-07T14:12:05;10.90;99.90
19966;DHT22;10144;50.874;4.762;2023-04-07T14:21:11;10.90;99.90
19966;DHT22;10144;50.874;4.762;2023-04-07T14:26:58;11.20;99.90
19966;DHT22;10144;50.874;4.762;2023-04-07T14:32:48;11.30;99.90
19966;DHT22;10144;50.874;4.762;2023-04-07T14:35:16;11.30;99.90
19966;DHT22;10144;50.874;4.762;2023-04-07T14:41:06;11.50;99.90
19966;DHT22;10144;50.874;4.762;2023-04-07T14:46:54;11.60;99.90
19966;DHT22;10144;50.874;4.762;2023-04-07T14:52:42;11.80;99.90
19966;DHT22;10144;50.874;4.762;2023-04-07T14:58:33;11.40;99.90
19966;DHT22;10144;50.874;4.762;2023-04-07T15:04:23;11.10;99.90
19966;DHT22;10144;50.874;4.762;2023-04-07T15:10:14;11.50;99.90
19966;DHT22;10144;50.874;4.762;2023-04-07T15:16:10;11.80;99.90
19966;DHT22;10144;50.874;4.762;2023-04-07T15:21:58;11.90;99.90
19966;DHT22;10144;50.874;4.762;2023-04-07T15:24:29;12.00;99.90
19966;DHT22;10144;50.874;4.762;2023-04-07T15:33:39;11.70;99.90
19966;DHT22;10144;50.874;4.762;2023-04-07T15:39:30;10.80;99.90
19966;DHT22;10144;50.874;4.762;2023-04-07T15:42:07;10.70;99.90
19966;DHT22;10144;50.874;4.762;2023-04-07T15:51:20;11.10;99.90
19966;DHT22;10144;50.874;4.762;2023-04-07T15:57:08;11.80;99.90
19966;DHT22;10144;50.874;4.762;2023-04-07T16:02:56;12.20;99.90
19966;DHT22;10144;50.874;4.762;2023-04-07T16:08:44;11.80;99.90
19966;DHT22;10144;50.874;4.762;2023-04-07T16:14:31;11.60;99.90
19966;DHT22;10144;50.874;4.762;2023-04-07T16:20:19;11.30;99.90
19966;DHT22;10144;50.874;4.762;2023-04-07T16:26:09;11.50;99.90
19966;DHT22;10144;50.874;4.762;2023-04-07T16:31:57;11.30;99.90
19966;DHT22;10144;50.874;4.762;2023-04-07T16:44:04;10.80;99.90
19966;DHT22;10144;50.874;4.762;2023-04-07T16:50:27;10.60;99.90
19966;DHT22;10144;50.874;4.762;2023-04-07T16:56:19;10.40;99.90
19966;DHT22;10144;50.874;4.762;2023-04-07T17:02:11;10.10;99.90
19966;DHT22;10144;50.874;4.762;2023-04-07T17:08:02;9.90;99.90
19966;DHT22;10144;50.874;4.762;2023-04-07T17:13:50;9.70;99.90
19966;DHT22;10144;50.874;4.762;2023-04-07T17:19:40;9.60;99.90
19966;DHT22;10144;50.874;4.762;2023-04-07T17:25:28;9.70;99.90
19966;DHT22;10144;50.874;4.762;2023-04-07T17:31:15;9.60;99.90
19966;DHT22;10144;50.874;4.762;2023-04-07T17:37:03;9.50;99.90
19966;DHT22;10144;50.874;4.762;2023-04-07T17:42:51;9.30;99.90
19966;DHT22;10144;50.874;4.762;2023-04-07T17:48:40;9.30;99.90
19966;DHT22;10144;50.874;4.762;2023-04-07T17:54:28;9.20;99.90
19966;DHT22;10144;50.874;4.762;2023-04-07T18:00:16;9.10;99.90
19966;DHT22;10144;50.874;4.762;2023-04-07T18:06:05;9.10;99.90
19966;DHT22;10144;50.874;4.762;2023-04-07T18:11:54;9.10;99.90
19966;DHT22;10144;50.874;4.762;2023-04-07T18:17:42;9.00;99.90
19966;DHT22;10144;50.874;4.762;2023-04-07T18:20:08;9.10;99.90
19966;DHT22;10144;50.874;4.762;2023-04-07T18:25:56;9.00;99.90
19966;DHT22;10144;50.874;4.762;2023-04-07T18:31:44;8.80;99.90
19966;DHT22;10144;50.874;4.762;2023-04-07T18:37:32;8.90;99.90
19966;DHT22;10144;50.874;4.762;2023-04-07T18:46:28;8.90;99.90
19966;DHT22;10144;50.874;4.762;2023-04-07T18:52:16;8.90;99.90
19966;DHT22;10144;50.874;4.762;2023-04-07T18:58:10;8.80;99.90
19966;DHT22;10144;50.874;4.762;2023-04-07T19:03:58;9.00;99.90
19966;DHT22;10144;50.874;4.762;2023-04-07T19:10:04;8.90;99.90
19966;DHT22;10144;50.874;4.762;2023-04-07T19:15:52;8.90;99.90
19966;DHT22;10144;50.874;4.762;2023-04-07T19:25:05;8.90;99.90
19966;DHT22;10144;50.874;4.762;2023-04-07T19:30:53;8.90;99.90
19966;DHT22;10144;50.874;4.762;2023-04-07T19:36:40;8.70;99.90
19966;DHT22;10144;50.874;4.762;2023-04-07T19:42:28;8.80;99.90
19966;DHT22;10144;50.874;4.762;2023-04-07T19:48:16;8.80;99.90
19966;DHT22;10144;50.874;4.762;2023-04-07T19:54:04;8.60;99.90
19966;DHT22;10144;50.874;4.762;2023-04-07T19:59:51;8.50;99.90
19966;DHT22;10144;50.874;4.762;2023-04-07T20:05:39;8.50;99.90
19966;DHT22;10144;50.874;4.762;2023-04-07T20:11:26;8.70;99.90
19966;DHT22;10144;50.874;4.762;2023-04-07T20:17:14;8.60;99.90
19966;DHT22;10144;50.874;4.762;2023-04-07T20:23:01;8.60;99.90
19966;DHT22;10144;50.874;4.762;2023-04-07T20:28:49;8.70;99.90
19966;DHT22;10144;50.874;4.762;2023-04-07T20:34:37;8.60;99.90
19966;DHT22;10144;50.874;4.762;2023-04-07T20:40:25;8.60;99.90
19966;DHT22;10144;50.874;4.762;2023-04-07T20:46:13;8.80;99.90
19966;DHT22;10144;50.874;4.762;2023-04-07T20:52:02;8.70;99.90
19966;DHT22;10144;50.874;4.762;2023-04-07T20:57:49;8.60;99.90
19966;DHT22;10144;50.874;4.762;2023-04-07T21:03:38;8.60;99.90
19966;DHT22;10144;50.874;4.762;2023-04-07T21:09:25;8.50;99.90
19966;DHT22;10144;50.874;4.762;2023-04-07T21:15:13;8.50;99.90
19966;DHT22;10144;50.874;4.762;2023-04-07T21:21:01;8.60;99.90
19966;DHT22;10144;50.874;4.762;2023-04-07T21:26:50;8.50;99.90
19966;DHT22;10144;50.874;4.762;2023-04-07T21:32:39;8.60;99.90
19966;DHT22;10144;50.874;4.762;2023-04-07T21:38:27;8.60;99.90
19966;DHT22;10144;50.874;4.762;2023-04-07T21:44:15;8.60;99.90
19966;DHT22;10144;50.874;4.762;2023-04-07T21:50:06;8.60;99.90
19966;DHT22;10144;50.874;4.762;2023-04-07T21:55:54;8.70;99.90
19966;DHT22;10144;50.874;4.762;2023-04-07T22:01:43;8.60;99.90
19966;DHT22;10144;50.874;4.762;2023-04-07T22:07:32;8.50;99.90
19966;DHT22;10144;50.874;4.762;2023-04-07T22:13:20;8.70;99.90
19966;DHT22;10144;50.874;4.762;2023-04-07T22:19:07;8.80;99.90
19966;DHT22;10144;50.874;4.762;2023-04-07T22:24:55;8.70;99.90
19966;DHT22;10144;50.874;4.762;2023-04-07T22:30:43;8.50;99.90
19966;DHT22;10144;50.874;4.762;2023-04-07T22:36:31;8.40;99.90
19966;DHT22;10144;50.874;4.762;2023-04-07T22:42:20;8.40;99.90
19966;DHT22;10144;50.874;4.762;2023-04-07T22:48:08;8.40;99.90
19966;DHT22;10144;50.874;4.762;2023-04-07T22:53:55;8.30;99.90
19966;DHT22;10144;50.874;4.762;2023-04-07T22:59:43;8.40;99.90
19966;DHT22;10144;50.874;4.762;2023-04-07T23:05:31;8.20;99.90
19966;DHT22;10144;50.874;4.762;2023-04-07T23:11:18;8.30;99.90
19966;DHT22;10144;50.874;4.762;2023-04-07T23:17:06;8.20;99.90
19966;DHT22;10144;50.874;4.762;2023-04-07T23:22:54;8.20;99.90
19966;DHT22;10144;50.874;4.762;2023-04-07T23:28:43;8.40;99.90
19966;DHT22;10144;50.874;4.762;2023-04-07T23:34:30;8.50;99.90
19966;DHT22;10144;50.874;4.762;2023-04-07T23:40:18;8.40;99.90
19966;DHT22;10144;50.874;4.762;2023-04-07T23:46:05;8.40;99.90
19966;DHT22;10144;50.874;4.762;2023-04-07T23:51:53;8.40;99.90
19966;DHT22;10144;50.874;4.762;2023-04-07T23:57:41;8.50;99.90
